Time;durP1;ratioP1;P1;durP2;ratioP2;P2;SDS_P1;SDS_P2;PMS_P1;PMS_P2;Temp;Humidity;BMP_temperature;BMP_pressure;BME280_temperature;BME280_humidity;BME280_pressure;Samples;Min_cycle;Max_cycle;Signal;HPM_P1;HPM_P2
2024/01/09 00:00:55;;;;;;;0.90;0.90;;;-11.90;99.90;;;;;;5010199;28;20615;-69
2024/01/09 00:03:20;;;;;;;0.90;0.90;;;-12.00;99.90;;;;;;5010543;28;20199;-70
2024/01/09 00:05:46;;;;;;;0.90;0.90;;;-12.00;99.90;;;;;;5010652;28;20199;-69
2024/01/09 00:08:12;;;;;;;1.10;1.07;;;-12.00;99.90;;;;;;5008902;28;20210;-69
2024/01/09 00:10:58;;;;;;;0.90;0.90;;;-12.00;99.90;;;;;;4992884;28;20245;-69
2024/01/09 00:13:35;;;;;;;0.90;0.90;;;-12.10;99.90;;;;;;5010205;28;20201;-69
2024/01/09 00:16:25;;;;;;;0.90;0.90;;;-12.10;99.90;;;;;;5010032;28;20261;-69
2024/01/09 00:19:02;;;;;;;1.10;1.10;;;-12.10;99.90;;;;;;5010214;28;20218;-69
2024/01/09 00:21:30;;;;;;;0.90;0.90;;;-12.10;99.90;;;;;;5009454;28;20206;-71
2024/01/09 00:23:56;;;;;;;0.90;0.90;;;-12.10;99.90;;;;;;5010329;28;20186;-70
2024/01/09 00:26:22;;;;;;;1.00;1.00;;;-12.10;99.90;;;;;;5010240;28;20201;-69
2024/01/09 00:28:53;;;;;;;0.90;0.90;;;-12.10;99.90;;;;;;5029865;28;20190;-69
2024/01/09 00:31:21;;;;;;;0.90;0.90;;;-12.20;99.90;;;;;;5017397;28;20203;-71
2024/01/09 00:33:59;;;;;;;0.90;0.90;;;-12.20;99.90;;;;;;5010097;28;20195;-69
2024/01/09 00:36:25;;;;;;;0.90;0.90;;;-12.20;99.90;;;;;;5009959;28;20708;-69
2024/01/09 00:38:51;;;;;;;0.90;0.90;;;-12.20;99.90;;;;;;5010316;28;20187;-69
2024/01/09 00:41:16;;;;;;;0.90;0.90;;;-12.20;99.90;;;;;;5010190;28;20218;-69
2024/01/09 00:43:42;;;;;;;1.00;1.00;;;-12.10;99.90;;;;;;5010023;28;20210;-70
2024/01/09 00:46:08;;;;;;;0.90;0.90;;;-12.10;99.90;;;;;;5009685;28;20198;-69
2024/01/09 00:48:34;;;;;;;0.80;0.80;;;-12.00;99.90;;;;;;5009379;28;20197;-69
2024/01/09 00:51:00;;;;;;;1.33;1.23;;;-11.90;99.90;;;;;;5009679;28;20302;-69
2024/01/09 00:53:25;;;;;;;0.90;0.90;;;-11.80;99.90;;;;;;5009923;28;20262;-69
2024/01/09 00:55:51;;;;;;;0.90;0.90;;;-11.80;99.90;;;;;;5009656;28;20187;-68
2024/01/09 00:58:17;;;;;;;0.90;0.90;;;-11.80;99.90;;;;;;5009497;28;20271;-69
2024/01/09 01:00:43;;;;;;;0.90;0.90;;;-11.80;99.90;;;;;;5009360;28;20745;-68
2024/01/09 01:03:08;;;;;;;0.80;0.80;;;-11.70;99.90;;;;;;5009524;28;20191;-69
2024/01/09 01:05:34;;;;;;;0.87;0.87;;;-11.70;99.90;;;;;;5009330;28;20196;-69
2024/01/09 01:08:00;;;;;;;0.90;0.90;;;-11.60;99.90;;;;;;5009417;28;20519;-68
2024/01/09 01:10:26;;;;;;;0.80;0.80;;;-11.60;99.90;;;;;;4992333;28;20295;-69
2024/01/09 01:12:52;;;;;;;0.93;0.93;;;-11.50;99.90;;;;;;5009232;28;20191;-68
2024/01/09 01:15:18;;;;;;;0.93;0.93;;;-11.50;99.90;;;;;;5009168;28;20388;-69
2024/01/09 01:17:44;;;;;;;0.90;0.90;;;-11.50;99.90;;;;;;4990100;28;20699;-70
2024/01/09 01:20:10;;;;;;;0.90;0.90;;;-11.50;99.90;;;;;;4993609;28;20253;-70
2024/01/09 01:22:35;;;;;;;1.00;1.00;;;-11.50;99.90;;;;;;4993553;28;20198;-69
2024/01/09 01:25:02;;;;;;;0.90;0.90;;;-11.50;99.90;;;;;;5013220;28;20203;-69
2024/01/09 01:27:28;;;;;;;1.47;1.37;;;-11.50;99.90;;;;;;5012571;28;20221;-69
2024/01/09 01:29:54;;;;;;;0.90;0.90;;;-11.60;99.90;;;;;;5012991;28;20211;-69
2024/01/09 01:32:20;;;;;;;0.90;0.90;;;-11.60;99.90;;;;;;5012942;28;20563;-70
2024/01/09 01:34:46;;;;;;;0.90;0.90;;;-11.70;99.90;;;;;;5013266;28;20202;-70
2024/01/09 01:37:12;;;;;;;0.90;0.90;;;-11.70;99.90;;;;;;5012751;28;20665;-70
2024/01/09 01:39:37;;;;;;;1.07;1.07;;;-11.80;99.90;;;;;;5011448;28;20293;-70
2024/01/09 01:42:03;;;;;;;0.90;0.90;;;-11.90;99.90;;;;;;5013021;28;20222;-70
2024/01/09 01:44:29;;;;;;;0.90;0.90;;;-11.90;99.90;;;;;;4994864;28;20666;-70
2024/01/09 01:46:55;;;;;;;2.37;2.20;;;-12.00;99.90;;;;;;5012954;28;20667;-70
2024/01/09 01:49:21;;;;;;;0.87;0.87;;;-12.00;99.90;;;;;;5012445;28;20210;-70
2024/01/09 01:51:50;;;;;;;0.90;0.90;;;-12.00;99.90;;;;;;5012581;28;20195;-70
2024/01/09 01:54:16;;;;;;;1.00;1.00;;;-12.10;99.90;;;;;;5012605;28;20191;-70
2024/01/09 01:56:43;;;;;;;0.90;0.90;;;-12.10;99.90;;;;;;5011206;28;20198;-70
2024/01/09 01:59:10;;;;;;;0.90;0.90;;;-12.10;99.90;;;;;;5012514;28;20198;-70
2024/01/09 02:01:36;;;;;;;0.90;0.90;;;-12.10;99.90;;;;;;5012609;28;20188;-70
2024/01/09 02:04:03;;;;;;;1.20;1.20;;;-12.10;99.90;;;;;;5012166;28;20213;-70
2024/01/09 02:06:30;;;;;;;1.00;1.00;;;-12.10;99.90;;;;;;5012211;28;20650;-70
2024/01/09 02:08:56;;;;;;;0.90;0.90;;;-12.00;99.90;;;;;;4994580;28;20199;-70
2024/01/09 02:11:22;;;;;;;1.00;1.00;;;-12.10;99.90;;;;;;5012078;28;20883;-70
2024/01/09 02:13:48;;;;;;;0.90;0.90;;;-12.10;99.90;;;;;;5010543;28;20190;-70
2024/01/09 02:16:14;;;;;;;1.00;1.00;;;-12.10;99.90;;;;;;5012140;28;20239;-70
2024/01/09 02:18:39;;;;;;;1.00;1.00;;;-12.10;99.90;;;;;;4994350;28;20202;-70
2024/01/09 02:21:05;;;;;;;0.90;0.90;;;-12.10;99.90;;;;;;5030074;28;20241;-70
2024/01/09 02:23:30;;;;;;;0.93;0.93;;;-12.10;99.90;;;;;;5021826;28;20206;-70
2024/01/09 02:25:57;;;;;;;1.37;1.30;;;-12.10;99.90;;;;;;5012097;28;20261;-70
2024/01/09 02:28:36;;;;;;;1.83;1.73;;;-12.10;99.90;;;;;;5011950;28;20202;-70
2024/01/09 02:31:02;;;;;;;0.90;0.90;;;-12.10;99.90;;;;;;5011043;28;20207;-70
2024/01/09 02:33:29;;;;;;;0.90;0.90;;;-12.10;99.90;;;;;;5012013;28;20395;-70
2024/01/09 02:35:54;;;;;;;0.90;0.90;;;-12.10;99.90;;;;;;5011953;28;20234;-70
2024/01/09 02:38:21;;;;;;;0.90;0.90;;;-12.20;99.90;;;;;;5011660;28;20576;-70
2024/01/09 02:40:46;;;;;;;0.90;0.90;;;-12.20;99.90;;;;;;5011753;28;20605;-70
2024/01/09 02:43:12;;;;;;;0.90;0.90;;;-12.30;99.90;;;;;;5011914;28;20199;-71
2024/01/09 02:45:38;;;;;;;0.90;0.90;;;-12.30;99.90;;;;;;5011607;28;20249;-71
2024/01/09 02:48:04;;;;;;;0.90;0.90;;;-12.40;99.90;;;;;;5010345;28;20202;-71
2024/01/09 02:50:29;;;;;;;1.07;1.07;;;-12.30;99.90;;;;;;5011264;28;20617;-71
2024/01/09 02:52:55;;;;;;;0.90;0.90;;;-12.30;99.90;;;;;;5011522;28;20190;-71
2024/01/09 02:55:20;;;;;;;0.90;0.90;;;-12.40;99.90;;;;;;5009945;28;20236;-71
2024/01/09 02:57:46;;;;;;;0.90;0.90;;;-12.40;99.90;;;;;;5011492;28;20666;-71
2024/01/09 03:00:12;;;;;;;0.90;0.90;;;-12.50;99.90;;;;;;5011509;28;20271;-71
2024/01/09 03:02:38;;;;;;;1.53;1.43;;;-12.50;99.90;;;;;;5011361;28;20199;-71
2024/01/09 03:05:07;;;;;;;1.50;1.40;;;-12.50;99.90;;;;;;5011377;28;20201;-71
2024/01/09 03:07:33;;;;;;;0.90;0.90;;;-12.40;99.90;;;;;;5011244;28;20639;-71
2024/01/09 03:09:59;;;;;;;0.90;0.90;;;-12.40;99.90;;;;;;5010992;28;20207;-72
2024/01/09 03:12:25;;;;;;;0.90;0.90;;;-12.50;99.90;;;;;;5011026;28;20194;-72
2024/01/09 03:14:51;;;;;;;2.30;2.07;;;-12.60;99.90;;;;;;5011211;28;20263;-72
2024/01/09 03:17:16;;;;;;;0.90;0.90;;;-12.60;99.90;;;;;;5006687;28;20208;-71
2024/01/09 03:19:43;;;;;;;1.03;1.03;;;-12.70;99.90;;;;;;4999797;28;20345;-72
2024/01/09 03:22:08;;;;;;;1.03;1.03;;;-12.70;99.90;;;;;;5010975;28;20587;-71
2024/01/09 03:24:34;;;;;;;0.90;0.90;;;-12.70;99.90;;;;;;5010809;28;20199;-71
2024/01/09 03:27:00;;;;;;;0.90;0.90;;;-12.80;99.90;;;;;;4993100;28;20238;-72
2024/01/09 03:29:25;;;;;;;0.93;0.93;;;-12.90;99.90;;;;;;5010624;28;20198;-71
2024/01/09 03:31:51;;;;;;;1.00;1.00;;;-12.90;99.90;;;;;;5010841;28;20191;-71
2024/01/09 03:34:17;;;;;;;0.90;0.90;;;-12.90;99.90;;;;;;5010716;28;20210;-70
2024/01/09 03:36:45;;;;;;;0.90;0.90;;;-12.90;99.90;;;;;;5010404;28;20227;-71
2024/01/09 03:39:14;;;;;;;1.97;1.77;;;-12.90;99.90;;;;;;5010791;28;20191;-71
2024/01/09 03:41:41;;;;;;;0.90;0.90;;;-12.90;99.90;;;;;;5010807;28;20537;-71
2024/01/09 03:44:07;;;;;;;0.90;0.90;;;-12.90;99.90;;;;;;5010604;28;20199;-71
2024/01/09 03:46:32;;;;;;;0.90;0.90;;;-13.00;99.90;;;;;;5010988;28;20742;-72
2024/01/09 03:48:58;;;;;;;1.00;1.00;;;-13.00;99.90;;;;;;5010610;28;20191;-72
2024/01/09 03:51:24;;;;;;;0.90;0.90;;;-13.00;99.90;;;;;;5008958;28;20218;-71
2024/01/09 03:53:49;;;;;;;1.00;1.00;;;-12.90;99.90;;;;;;5010425;28;20215;-67
2024/01/09 03:56:15;;;;;;;0.90;0.90;;;-13.00;99.90;;;;;;5010478;28;20198;-67
2024/01/09 03:58:41;;;;;;;1.00;1.00;;;-13.00;99.90;;;;;;5010160;28;20187;-68
2024/01/09 04:01:06;;;;;;;0.83;0.83;;;-13.10;99.90;;;;;;5009507;28;20205;-69
2024/01/09 04:03:32;;;;;;;1.00;1.00;;;-13.10;99.90;;;;;;5009505;28;20424;-68
2024/01/09 04:05:58;;;;;;;1.00;1.00;;;-13.10;99.90;;;;;;5010950;28;20203;-68
2024/01/09 04:08:23;;;;;;;0.90;0.90;;;-13.20;99.90;;;;;;5010069;28;20194;-68
2024/01/09 04:10:49;;;;;;;0.90;0.90;;;-13.30;99.90;;;;;;5010382;28;20195;-69
2024/01/09 04:13:15;;;;;;;0.90;0.90;;;-13.20;99.90;;;;;;5025595;28;20198;-69
2024/01/09 04:15:41;;;;;;;1.00;1.00;;;-13.20;99.90;;;;;;5023223;28;20191;-68
2024/01/09 04:18:06;;;;;;;0.90;0.90;;;-13.30;99.90;;;;;;5010329;28;20188;-68
2024/01/09 04:20:32;;;;;;;0.90;0.90;;;-13.30;99.90;;;;;;5009930;28;20205;-68
2024/01/09 04:22:58;;;;;;;1.00;1.00;;;-13.30;99.90;;;;;;5010331;28;20195;-68
2024/01/09 04:25:23;;;;;;;1.13;1.13;;;-13.20;99.90;;;;;;5008464;28;20202;-68
2024/01/09 04:27:49;;;;;;;1.00;1.00;;;-13.20;99.90;;;;;;5010210;28;20202;-69
2024/01/09 04:30:15;;;;;;;1.00;1.00;;;-13.30;99.90;;;;;;5009992;28;20217;-68
2024/01/09 04:32:40;;;;;;;0.97;0.97;;;-13.30;99.90;;;;;;5010062;28;20202;-68
2024/01/09 04:35:06;;;;;;;1.00;1.00;;;-13.30;99.90;;;;;;5010229;28;20194;-68
2024/01/09 04:37:32;;;;;;;1.00;1.00;;;-13.30;99.90;;;;;;5009554;28;20281;-68
2024/01/09 04:39:57;;;;;;;1.00;1.00;;;-13.40;99.90;;;;;;5009787;28;20199;-68
2024/01/09 04:42:23;;;;;;;0.93;0.93;;;-13.40;99.90;;;;;;5009644;28;20225;-68
2024/01/09 04:44:49;;;;;;;0.90;0.90;;;-13.40;99.90;;;;;;5009870;28;20198;-68
2024/01/09 04:47:15;;;;;;;0.83;0.83;;;-13.30;99.90;;;;;;5008392;28;20630;-68
2024/01/09 04:49:44;;;;;;;0.90;0.90;;;-13.30;99.90;;;;;;5008154;28;20298;-69
2024/01/09 04:52:10;;;;;;;0.90;0.90;;;-13.30;99.90;;;;;;5009352;28;20199;-68
2024/01/09 04:54:36;;;;;;;0.90;0.90;;;-13.20;99.90;;;;;;5009376;28;20595;-68
2024/01/09 04:57:02;;;;;;;0.90;0.90;;;-13.20;99.90;;;;;;5008208;28;20195;-69
2024/01/09 04:59:28;;;;;;;0.90;0.90;;;-13.10;99.90;;;;;;5009311;28;20708;-68
2024/01/09 05:01:53;;;;;;;0.90;0.90;;;-13.20;99.90;;;;;;5009373;28;20191;-70
2024/01/09 05:04:19;;;;;;;0.93;0.93;;;-13.20;99.90;;;;;;5009125;28;20198;-70
2024/01/09 05:06:45;;;;;;;0.97;0.97;;;-13.20;99.90;;;;;;5009417;28;20377;-71
2024/01/09 05:09:11;;;;;;;0.90;0.90;;;-13.20;99.90;;;;;;5022385;28;20198;-71
2024/01/09 05:11:37;;;;;;;0.90;0.90;;;-13.20;99.90;;;;;;5024668;28;20261;-70
2024/01/09 05:14:03;;;;;;;1.00;1.00;;;-13.20;99.90;;;;;;5009584;28;20228;-71
2024/01/09 05:16:28;;;;;;;1.00;1.00;;;-13.30;99.90;;;;;;5009677;28;20193;-70
2024/01/09 05:18:54;;;;;;;0.90;0.90;;;-13.40;99.90;;;;;;5009444;28;20223;-70
2024/01/09 05:21:20;;;;;;;1.00;1.00;;;-13.40;99.90;;;;;;5009025;28;20685;-70
2024/01/09 05:23:46;;;;;;;1.00;1.00;;;-13.40;99.90;;;;;;5009390;28;20205;-70
2024/01/09 05:26:12;;;;;;;1.00;1.00;;;-13.40;99.90;;;;;;5009788;28;20194;-70
2024/01/09 05:28:37;;;;;;;1.60;1.50;;;-13.40;99.90;;;;;;5009358;28;20692;-70
2024/01/09 05:31:03;;;;;;;1.00;1.00;;;-13.40;99.90;;;;;;5009861;28;20207;-70
2024/01/09 05:33:29;;;;;;;0.97;0.97;;;-13.40;99.90;;;;;;5009623;28;20561;-70
2024/01/09 05:35:55;;;;;;;0.80;0.80;;;-13.50;99.90;;;;;;5008085;28;20293;-71
2024/01/09 05:38:21;;;;;;;0.90;0.90;;;-13.50;99.90;;;;;;5008986;28;20199;-70
2024/01/09 05:40:46;;;;;;;0.97;0.97;;;-13.60;99.90;;;;;;5009042;28;20614;-70
2024/01/09 05:43:12;;;;;;;1.00;1.00;;;-13.70;99.90;;;;;;5009228;28;20198;-70
2024/01/09 05:45:38;;;;;;;1.40;1.30;;;-13.70;99.90;;;;;;5009349;28;20202;-70
2024/01/09 05:48:04;;;;;;;1.00;1.00;;;-13.80;99.90;;;;;;5009251;28;20601;-70
2024/01/09 05:50:30;;;;;;;1.10;1.10;;;-13.80;99.90;;;;;;5008888;28;20203;-70
2024/01/09 05:52:56;;;;;;;1.00;1.00;;;-13.80;99.90;;;;;;5009185;28;20214;-71
2024/01/09 05:55:21;;;;;;;1.00;1.00;;;-13.80;99.90;;;;;;5008951;28;20659;-70
2024/01/09 05:57:47;;;;;;;0.83;0.83;;;-13.80;99.90;;;;;;5009508;28;20202;-71
2024/01/09 06:00:14;;;;;;;1.27;1.20;;;-13.80;99.90;;;;;;5008036;28;20238;-71
2024/01/09 06:02:40;;;;;;;1.00;1.00;;;-13.90;99.90;;;;;;5008902;28;20263;-71
2024/01/09 06:05:06;;;;;;;1.40;1.27;;;-13.90;99.90;;;;;;5010210;28;20203;-71
2024/01/09 06:07:32;;;;;;;3.57;3.07;;;-13.90;99.90;;;;;;5012029;28;20217;-71
2024/01/09 06:09:58;;;;;;;1.47;1.37;;;-13.90;99.90;;;;;;5012612;28;20336;-71
2024/01/09 06:12:24;;;;;;;1.43;1.33;;;-13.90;99.90;;;;;;5012556;28;20273;-71
2024/01/09 06:14:49;;;;;;;0.90;0.90;;;-13.90;99.90;;;;;;5012608;28;20269;-70
2024/01/09 06:17:15;;;;;;;2.60;2.40;;;-13.90;99.90;;;;;;5012535;28;20191;-70
2024/01/09 06:19:40;;;;;;;0.90;0.90;;;-13.90;99.90;;;;;;5012304;28;20195;-70
2024/01/09 06:22:07;;;;;;;1.37;1.30;;;-13.90;99.90;;;;;;5012694;28;20182;-71
2024/01/09 06:24:33;;;;;;;0.80;0.80;;;-13.90;99.90;;;;;;5010909;28;20202;-71
2024/01/09 06:26:58;;;;;;;0.90;0.90;;;-13.90;99.90;;;;;;5012604;28;20199;-71
2024/01/09 06:29:24;;;;;;;0.90;0.90;;;-13.80;99.90;;;;;;5011948;28;20191;-71
2024/01/09 06:31:50;;;;;;;1.00;1.00;;;-13.80;99.90;;;;;;5012229;28;20278;-71
2024/01/09 06:34:15;;;;;;;0.90;0.90;;;-13.90;99.90;;;;;;5012336;28;20277;-70
2024/01/09 06:36:45;;;;;;;0.90;0.90;;;-13.90;99.90;;;;;;5011830;28;20309;-71
2024/01/09 06:39:11;;;;;;;1.00;1.00;;;-13.90;99.90;;;;;;5012166;28;20187;-71
2024/01/09 06:41:37;;;;;;;0.97;0.97;;;-13.90;99.90;;;;;;5011861;28;20227;-71
2024/01/09 06:44:03;;;;;;;0.97;0.97;;;-13.80;99.90;;;;;;5011919;28;20619;-71
2024/01/09 06:46:29;;;;;;;1.00;1.00;;;-13.70;99.90;;;;;;5011887;28;20187;-70
2024/01/09 06:48:54;;;;;;;1.00;1.00;;;-13.70;99.90;;;;;;5011903;28;20609;-71
2024/01/09 06:51:20;;;;;;;1.40;1.30;;;-13.60;99.90;;;;;;5011378;28;20206;-70
2024/01/09 06:53:46;;;;;;;2.30;2.10;;;-13.50;99.90;;;;;;5011957;28;20223;-70
2024/01/09 06:56:11;;;;;;;1.30;1.20;;;-13.40;99.90;;;;;;5011885;28;20187;-71
2024/01/09 06:58:37;;;;;;;0.90;0.90;;;-13.40;99.90;;;;;;5011429;28;20206;-70
2024/01/09 07:01:03;;;;;;;1.40;1.30;;;-13.30;99.90;;;;;;5019230;28;20242;-71
2024/01/09 07:03:30;;;;;;;0.90;0.90;;;-13.30;99.90;;;;;;5031120;28;20194;-71
2024/01/09 07:05:56;;;;;;;1.10;1.10;;;-13.30;99.90;;;;;;5012135;28;20245;-70
2024/01/09 07:08:22;;;;;;;1.50;1.40;;;-13.30;99.90;;;;;;5011337;28;20566;-70
2024/01/09 07:10:47;;;;;;;1.00;1.00;;;-13.40;99.90;;;;;;4993857;28;20242;-70
2024/01/09 07:13:13;;;;;;;0.90;0.90;;;-13.50;99.90;;;;;;5011572;28;20195;-71
2024/01/09 07:15:39;;;;;;;0.97;0.97;;;-13.50;99.90;;;;;;5010812;28;20677;-70
2024/01/09 07:18:05;;;;;;;1.00;1.00;;;-13.60;99.90;;;;;;5011393;28;20649;-71
2024/01/09 07:20:30;;;;;;;0.90;0.90;;;-13.60;99.90;;;;;;5011537;28;20221;-71
2024/01/09 07:22:56;;;;;;;1.00;1.00;;;-13.70;99.90;;;;;;5011499;28;20191;-71
2024/01/09 07:25:22;;;;;;;0.90;0.90;;;-13.80;99.90;;;;;;5011168;28;20249;-70
2024/01/09 07:27:47;;;;;;;1.00;1.00;;;-13.80;99.90;;;;;;5011322;28;20202;-70
2024/01/09 07:30:14;;;;;;;1.93;1.83;;;-13.80;99.90;;;;;;5011186;28;20207;-70
2024/01/09 07:32:39;;;;;;;1.00;1.00;;;-13.90;99.90;;;;;;5011128;28;20658;-70
2024/01/09 07:35:06;;;;;;;1.00;1.00;;;-13.90;99.90;;;;;;5011521;28;20231;-70
2024/01/09 07:37:32;;;;;;;1.67;1.57;;;-13.90;99.90;;;;;;5010575;28;20222;-70
2024/01/09 07:39:57;;;;;;;1.33;1.27;;;-13.90;99.90;;;;;;4993284;28;20675;-70
2024/01/09 07:42:23;;;;;;;1.47;1.37;;;-14.00;99.90;;;;;;5010725;28;20585;-70
2024/01/09 07:44:49;;;;;;;0.90;0.90;;;-14.10;99.90;;;;;;5010918;28;20191;-70
2024/01/09 07:47:14;;;;;;;0.90;0.90;;;-14.10;99.90;;;;;;5010890;28;20230;-71
2024/01/09 07:49:40;;;;;;;0.90;0.90;;;-14.20;99.90;;;;;;5010420;28;20566;-71
2024/01/09 07:52:06;;;;;;;0.87;0.87;;;-14.10;99.90;;;;;;5010872;28;20191;-71
2024/01/09 07:54:32;;;;;;;1.00;1.00;;;-14.20;99.90;;;;;;5008840;28;20195;-70
2024/01/09 07:56:57;;;;;;;0.93;0.93;;;-14.10;99.90;;;;;;5015579;28;20240;-70
2024/01/09 07:59:23;;;;;;;1.00;1.00;;;-14.10;99.90;;;;;;5030221;28;20565;-70
2024/01/09 08:01:55;;;;;;;0.90;0.90;;;-14.10;99.90;;;;;;5013808;28;20195;-70
2024/01/09 08:04:24;;;;;;;1.00;1.00;;;-14.10;99.90;;;;;;5008615;28;20198;-70
2024/01/09 08:06:50;;;;;;;0.90;0.90;;;-14.10;99.90;;;;;;5010536;28;20663;-70
2024/01/09 08:09:17;;;;;;;0.90;0.90;;;-14.00;99.90;;;;;;5010617;28;20533;-70
2024/01/09 08:11:46;;;;;;;0.90;0.90;;;-13.90;99.90;;;;;;5010156;28;20202;-70
2024/01/09 08:14:15;;;;;;;1.07;1.07;;;-13.90;99.90;;;;;;5010390;28;20190;-70
2024/01/09 08:16:41;;;;;;;0.90;0.90;;;-13.80;99.90;;;;;;5010164;28;20202;-70
2024/01/09 08:19:08;;;;;;;1.00;1.00;;;-13.70;99.90;;;;;;5009077;28;20195;-70
2024/01/09 08:21:37;;;;;;;1.10;1.10;;;-13.70;99.90;;;;;;5009937;28;20195;-70
2024/01/09 08:24:03;;;;;;;0.90;0.90;;;-13.60;99.90;;;;;;5010303;28;20234;-70
2024/01/09 08:26:29;;;;;;;1.00;1.00;;;-13.60;99.90;;;;;;5009899;28;20201;-70
2024/01/09 08:28:55;;;;;;;1.00;1.00;;;-13.60;99.90;;;;;;5008280;28;20206;-70
2024/01/09 08:31:21;;;;;;;1.00;1.00;;;-13.60;99.90;;;;;;5009984;28;20207;-70
2024/01/09 08:33:47;;;;;;;2.13;2.03;;;-13.50;99.90;;;;;;5010272;28;20199;-70
2024/01/09 08:36:16;;;;;;;0.90;0.90;;;-13.50;99.90;;;;;;5009885;28;20233;-70
2024/01/09 08:38:42;;;;;;;0.90;0.90;;;-13.60;99.90;;;;;;5009925;28;20710;-70
2024/01/09 08:41:08;;;;;;;1.00;1.00;;;-13.70;99.90;;;;;;5010005;28;20199;-70
2024/01/09 08:43:34;;;;;;;1.00;1.00;;;-13.70;99.90;;;;;;5009450;28;20204;-69
2024/01/09 08:45:59;;;;;;;0.90;0.90;;;-13.70;99.90;;;;;;5006040;28;20203;-70
2024/01/09 08:48:27;;;;;;;0.90;0.90;;;-13.70;99.90;;;;;;5009603;28;20194;-69
2024/01/09 08:50:52;;;;;;;1.00;1.00;;;-13.60;99.90;;;;;;5009774;28;20195;-70
2024/01/09 08:53:18;;;;;;;0.90;0.90;;;-13.50;99.90;;;;;;5015155;28;20658;-70
2024/01/09 08:55:44;;;;;;;0.90;0.90;;;-13.50;99.90;;;;;;5029785;28;20221;-70
2024/01/09 08:58:09;;;;;;;1.30;1.20;;;-13.50;99.90;;;;;;5012308;28;20187;-69
2024/01/09 09:00:35;;;;;;;1.13;1.13;;;-13.40;99.90;;;;;;5009409;28;20202;-69
2024/01/09 09:03:01;;;;;;;0.93;0.93;;;-13.40;99.90;;;;;;5009493;28;20226;-69
2024/01/09 09:05:26;;;;;;;1.00;1.00;;;-13.40;99.90;;;;;;5009423;28;20551;-69
2024/01/09 09:07:52;;;;;;;0.90;0.90;;;-13.40;99.90;;;;;;5010009;28;20572;-69
2024/01/09 09:10:18;;;;;;;0.97;0.97;;;-13.30;99.90;;;;;;5009362;28;20209;-69
2024/01/09 09:12:43;;;;;;;0.90;0.90;;;-13.30;99.90;;;;;;5009518;28;20191;-69
2024/01/09 09:15:09;;;;;;;1.03;1.03;;;-13.30;99.90;;;;;;5009600;28;20191;-69
2024/01/09 09:17:35;;;;;;;0.90;0.90;;;-13.30;99.90;;;;;;5009489;28;20265;-69
2024/01/09 09:20:04;;;;;;;3.53;1.93;;;-13.30;99.90;;;;;;5007984;28;20202;-69
2024/01/09 09:22:29;;;;;;;1.40;1.33;;;-13.40;99.90;;;;;;5008061;28;20209;-69
2024/01/09 09:24:55;;;;;;;0.90;0.90;;;-13.40;99.90;;;;;;5009493;28;20195;-69
2024/01/09 09:27:21;;;;;;;1.40;1.30;;;-13.40;99.90;;;;;;5009163;28;20198;-69
2024/01/09 09:29:47;;;;;;;0.90;0.90;;;-13.40;99.90;;;;;;5009355;28;20194;-69
2024/01/09 09:32:12;;;;;;;0.97;0.97;;;-13.40;99.90;;;;;;5009395;28;20194;-69
2024/01/09 09:34:40;;;;;;;1.20;1.20;;;-13.40;99.90;;;;;;4991578;28;20199;-69
2024/01/09 09:37:06;;;;;;;1.00;1.00;;;-13.30;99.90;;;;;;5009277;28;20230;-69
2024/01/09 09:39:32;;;;;;;1.00;1.00;;;-13.30;99.90;;;;;;5011062;28;20211;-69
2024/01/09 09:41:58;;;;;;;1.00;1.00;;;-13.20;99.90;;;;;;5013271;28;20273;-68
2024/01/09 09:44:25;;;;;;;0.90;0.90;;;-13.10;99.90;;;;;;5011618;28;20566;-69
2024/01/09 09:46:51;;;;;;;0.90;0.90;;;-13.00;99.90;;;;;;5013351;28;20202;-69
2024/01/09 09:49:23;;;;;;;1.00;1.00;;;-13.00;99.90;;;;;;5016607;28;20685;-69
2024/01/09 09:51:50;;;;;;;0.90;0.90;;;-12.90;99.90;;;;;;5032789;28;20210;-68
2024/01/09 09:54:17;;;;;;;1.50;1.40;;;-12.80;99.90;;;;;;5017156;28;20199;-69
2024/01/09 09:56:47;;;;;;;1.00;1.00;;;-12.80;99.90;;;;;;5012945;28;20289;-69
2024/01/09 09:59:15;;;;;;;1.97;1.40;;;-12.80;99.90;;;;;;5013062;28;20554;-68
2024/01/09 10:01:42;;;;;;;0.90;0.90;;;-12.80;99.90;;;;;;5012778;28;20195;-68
2024/01/09 10:04:26;;;;;;;0.90;0.90;;;-12.70;99.90;;;;;;5012587;28;20690;-69
2024/01/09 10:06:55;;;;;;;1.00;1.00;;;-12.70;99.90;;;;;;5012917;28;20611;-68
2024/01/09 10:09:22;;;;;;;1.00;1.00;;;-12.70;99.90;;;;;;4994901;28;20272;-69
2024/01/09 10:11:49;;;;;;;1.00;1.00;;;-12.60;99.90;;;;;;5012709;28;20286;-68
2024/01/09 10:14:15;;;;;;;0.90;0.90;;;-12.50;99.90;;;;;;5012472;28;20190;-69
2024/01/09 10:16:53;;;;;;;11.00;6.30;;;-12.40;99.90;;;;;;5012380;28;20610;-69
2024/01/09 10:19:19;;;;;;;1.00;1.00;;;-12.40;99.90;;;;;;5012498;28;20202;-68
2024/01/09 10:21:45;;;;;;;0.90;0.90;;;-12.30;99.90;;;;;;5012487;28;20721;-69
2024/01/09 10:24:11;;;;;;;0.90;0.90;;;-12.20;99.90;;;;;;5013118;28;20198;-69
2024/01/09 10:26:36;;;;;;;1.00;1.00;;;-12.20;99.90;;;;;;5012325;28;20195;-69
2024/01/09 10:29:03;;;;;;;0.90;0.90;;;-12.20;99.90;;;;;;5012699;28;20260;-69
2024/01/09 10:31:30;;;;;;;1.30;1.30;;;-12.20;99.90;;;;;;5012168;28;20501;-68
2024/01/09 10:33:56;;;;;;;0.90;0.90;;;-12.20;99.90;;;;;;5012620;28;20191;-68
2024/01/09 10:36:22;;;;;;;1.03;1.03;;;-12.10;99.90;;;;;;5012031;28;20705;-69
2024/01/09 10:38:48;;;;;;;1.00;1.00;;;-12.20;99.90;;;;;;5012052;28;20643;-69
2024/01/09 10:41:20;;;;;;;0.90;0.90;;;-12.20;99.90;;;;;;5012147;28;20273;-69
2024/01/09 10:43:47;;;;;;;1.17;1.17;;;-12.10;99.90;;;;;;5012174;28;20202;-69
2024/01/09 10:46:14;;;;;;;1.30;1.30;;;-12.10;99.90;;;;;;5021247;28;20209;-70
2024/01/09 10:48:42;;;;;;;0.90;0.90;;;-12.00;99.90;;;;;;5013025;28;20222;-70
2024/01/09 10:51:11;;;;;;;1.00;1.00;;;-12.10;99.90;;;;;;5011087;28;20199;-69
2024/01/09 10:53:42;;;;;;;1.00;1.00;;;-12.10;99.90;;;;;;5011829;28;20266;-69
2024/01/09 10:56:09;;;;;;;1.03;1.03;;;-12.00;99.90;;;;;;5011784;28;20414;-70
2024/01/09 10:58:35;;;;;;;0.90;0.90;;;-12.00;99.90;;;;;;5011760;28;20187;-69
2024/01/09 11:01:03;;;;;;;0.90;0.90;;;-12.00;99.90;;;;;;4994927;28;20199;-69
2024/01/09 11:03:29;;;;;;;3.23;1.73;;;-11.90;99.90;;;;;;5011347;28;20198;-68
2024/01/09 11:05:59;;;;;;;1.00;1.00;;;-11.80;99.90;;;;;;5012107;28;20194;-70
2024/01/09 11:08:25;;;;;;;0.93;0.93;;;-11.90;99.90;;;;;;5011489;28;20646;-70
2024/01/09 11:10:52;;;;;;;0.90;0.90;;;-11.90;99.90;;;;;;5011643;28;20221;-69
2024/01/09 11:13:20;;;;;;;0.90;0.90;;;-11.90;99.90;;;;;;5011348;28;20194;-69
2024/01/09 11:15:52;;;;;;;1.00;1.00;;;-11.80;99.90;;;;;;5011757;28;20191;-68
2024/01/09 11:18:18;;;;;;;3.13;2.83;;;-11.80;99.90;;;;;;5011535;28;20560;-69
2024/01/09 11:20:44;;;;;;;3.37;3.07;;;-11.70;99.90;;;;;;5011448;28;20218;-69
2024/01/09 11:23:11;;;;;;;1.10;1.10;;;-11.80;99.90;;;;;;5011973;28;20694;-69
2024/01/09 11:25:37;;;;;;;1.00;1.00;;;-11.80;99.90;;;;;;5011515;28;20198;-69
2024/01/09 11:28:03;;;;;;;0.90;0.90;;;-11.80;99.90;;;;;;5011359;28;20625;-69
2024/01/09 11:30:31;;;;;;;0.90;0.90;;;-11.80;99.90;;;;;;5010891;28;20278;-69
2024/01/09 11:32:58;;;;;;;0.90;0.90;;;-11.70;99.90;;;;;;5011245;28;20282;-68
2024/01/09 11:35:27;;;;;;;0.90;0.90;;;-11.70;99.90;;;;;;5010451;28;20218;-70
2024/01/09 11:37:54;;;;;;;0.90;0.90;;;-11.70;99.90;;;;;;5011650;28;20286;-69
2024/01/09 11:40:21;;;;;;;1.00;1.00;;;-11.70;99.90;;;;;;5011205;28;20195;-69
2024/01/09 11:42:52;;;;;;;1.73;1.63;;;-11.70;99.90;;;;;;5011479;28;20210;-69
2024/01/09 11:45:22;;;;;;;1.10;1.10;;;-11.60;99.90;;;;;;5009776;28;20198;-69
2024/01/09 11:47:49;;;;;;;1.13;1.13;;;-11.60;99.90;;;;;;4993705;28;20261;-65
2024/01/09 11:50:15;;;;;;;1.00;1.00;;;-11.60;99.90;;;;;;5009361;28;20231;-67
2024/01/09 11:52:42;;;;;;;0.90;0.90;;;-11.60;99.90;;;;;;5011119;28;20187;-67
2024/01/09 11:55:10;;;;;;;0.90;0.90;;;-11.50;99.90;;;;;;5010647;28;20257;-67
2024/01/09 11:57:37;;;;;;;1.10;1.10;;;-11.50;99.90;;;;;;5010538;28;20307;-68
2024/01/09 12:00:06;;;;;;;2.20;2.10;;;-11.50;99.90;;;;;;5010837;28;20277;-68
2024/01/09 12:02:38;;;;;;;1.20;1.20;;;-11.40;99.90;;;;;;5009293;28;20202;-67
2024/01/09 12:05:08;;;;;;;1.33;1.23;;;-11.40;99.90;;;;;;5010666;28;20225;-67
2024/01/09 12:07:36;;;;;;;1.93;1.83;;;-11.40;99.90;;;;;;5010621;28;20962;-67
2024/01/09 12:10:02;;;;;;;0.90;0.90;;;-11.40;99.90;;;;;;5010543;28;20248;-69
2024/01/09 12:12:28;;;;;;;1.27;1.20;;;-11.40;99.90;;;;;;5010176;28;20235;-68
2024/01/09 12:14:55;;;;;;;2.87;2.67;;;-11.40;99.90;;;;;;5010514;28;20600;-67
2024/01/09 12:17:33;;;;;;;0.90;0.90;;;-11.40;99.90;;;;;;5010217;28;20191;-68
2024/01/09 12:20:02;;;;;;;0.90;0.90;;;-11.40;99.90;;;;;;5010259;28;20222;-68
2024/01/09 12:22:28;;;;;;;3.00;2.80;;;-11.40;99.90;;;;;;5010154;28;20195;-67
2024/01/09 12:24:55;;;;;;;0.90;0.90;;;-11.40;99.90;;;;;;5010219;28;20207;-68
2024/01/09 12:27:23;;;;;;;0.90;0.90;;;-11.30;99.90;;;;;;5010233;28;20218;-68
2024/01/09 12:29:53;;;;;;;1.00;1.00;;;-11.30;99.90;;;;;;5010051;28;20195;-68
2024/01/09 12:32:20;;;;;;;0.90;0.90;;;-11.30;99.90;;;;;;5009816;28;20277;-68